Time;durP1;ratioP1;P1;durP2;ratioP2;P2;SDS_P1;SDS_P2;PMS_P1;PMS_P2;Temp;Humidity;BMP_temperature;BMP_pressure;BME280_temperature;BME280_humidity;BME280_pressure;Samples;Min_cycle;Max_cycle;Signal;HPM_P1;HPM_P2
2023/04/28 00:00:35;;;;;;;;;;;;;;;2.09;61.35;101694.05;107432;1258;61200;-79
2023/04/28 00:03:18;;;;;;;;;;;;;;;2.12;61.54;101692.39;107842;1259;124996;-80
2023/04/28 00:05:46;;;;;;;;;;;;;;;2.15;61.51;101694.84;107615;1256;67033;-80
2023/04/28 00:08:13;;;;;;;;;;;;;;;2.17;61.30;101693.59;107474;1256;71426;-81
2023/04/28 00:10:40;;;;;;;;;;;;;;;2.18;61.46;101693.14;107533;1257;124209;-79
2023/04/28 00:13:07;;;;;;;;;;;;;;;2.18;61.31;101689.85;107541;1256;59727;-79
2023/04/28 00:15:34;;;;;;;;;;;;;;;2.20;61.27;101693.79;108575;1256;284907;-79
2023/04/28 00:18:01;;;;;;;;;;;;;;;2.20;61.34;101695.34;107830;1256;67019;-79
2023/04/28 00:20:28;;;;;;;;;;;;;;;2.20;61.40;101693.81;107654;1256;71576;-79
2023/04/28 00:22:55;;;;;;;;;;;;;;;2.21;61.56;101691.42;107536;1260;123742;-79
2023/04/28 00:25:22;;;;;;;;;;;;;;;2.20;61.32;101695.38;107555;1256;60813;-79
2023/04/28 00:27:49;;;;;;;;;;;;;;;2.20;61.38;101702.48;107505;1256;124378;-79
2023/04/28 00:30:16;;;;;;;;;;;;;;;2.19;61.53;101702.27;107637;1256;67198;-79
2023/04/28 00:32:43;;;;;;;;;;;;;;;2.19;61.56;101703.25;107617;1256;124601;-80
2023/04/28 00:35:10;;;;;;;;;;;;;;;2.19;61.66;101704.65;108834;1256;59376;-79
2023/04/28 00:37:37;;;;;;;;;;;;;;;2.19;61.63;101705.15;108890;1256;60201;-79
2023/04/28 00:40:05;;;;;;;;;;;;;;;2.19;61.76;101708.66;108696;1256;124876;-80
2023/04/28 00:42:32;;;;;;;;;;;;;;;2.19;61.72;101708.65;108920;1256;65777;-80
2023/04/28 00:45:04;;;;;;;;;;;;;;;2.20;61.66;101704.34;108744;1257;124655;-79
2023/04/28 00:47:32;;;;;;;;;;;;;;;2.20;61.87;101701.64;108840;1256;59139;-79
2023/04/28 00:50:00;;;;;;;;;;;;;;;2.21;61.60;101699.95;108892;1256;59371;-79
2023/04/28 00:52:27;;;;;;;;;;;;;;;2.21;61.80;101701.14;108773;1256;124590;-79
2023/04/28 00:54:55;;;;;;;;;;;;;;;2.21;61.71;101699.60;108877;1257;65816;-79
2023/04/28 00:57:22;;;;;;;;;;;;;;;2.22;61.90;101703.45;108704;1256;124050;-80
2023/04/28 00:59:49;;;;;;;;;;;;;;;2.21;62.08;101701.88;108888;1256;59318;-78
2023/04/28 01:02:17;;;;;;;;;;;;;;;2.20;62.03;101704.41;108942;1256;60122;-79
2023/04/28 01:04:44;;;;;;;;;;;;;;;2.20;61.96;101707.66;108758;1256;124419;-79
2023/04/28 01:07:11;;;;;;;;;;;;;;;2.19;62.10;101702.53;108861;1257;66060;-78
2023/04/28 01:09:38;;;;;;;;;;;;;;;2.18;62.21;101702.98;108826;1256;124063;-77
2023/04/28 01:12:05;;;;;;;;;;;;;;;2.16;62.15;101704.30;108832;1256;60014;-77
2023/04/28 01:14:32;;;;;;;;;;;;;;;2.15;62.15;101699.34;108899;1256;60384;-77
2023/04/28 01:16:59;;;;;;;;;;;;;;;2.13;62.21;101699.19;108651;1256;123706;-77
2023/04/28 01:19:28;;;;;;;;;;;;;;;2.11;62.47;101700.98;108863;1257;67567;-78
2023/04/28 01:21:55;;;;;;;;;;;;;;;2.10;62.37;101699.33;108691;1256;124669;-78
2023/04/28 01:24:25;;;;;;;;;;;;;;;2.08;62.62;101701.58;108819;1257;59326;-78
2023/04/28 01:26:52;;;;;;;;;;;;;;;2.07;62.48;101702.89;108652;1256;124846;-78
2023/04/28 01:29:19;;;;;;;;;;;;;;;2.07;62.86;101698.91;108763;1256;72936;-78
2023/04/28 01:31:46;;;;;;;;;;;;;;;2.06;62.74;101697.14;108960;1256;67108;-78
2023/04/28 01:34:13;;;;;;;;;;;;;;;2.06;62.72;101698.84;108823;1256;124879;-78
2023/04/28 01:36:40;;;;;;;;;;;;;;;2.05;62.72;101699.15;108803;1256;59261;-78
2023/04/28 01:39:07;;;;;;;;;;;;;;;2.05;62.96;101701.05;108752;1256;124059;-78
2023/04/28 01:41:34;;;;;;;;;;;;;;;2.06;62.90;101699.70;108837;1256;74727;-80
2023/04/28 01:44:01;;;;;;;;;;;;;;;2.06;62.96;101699.86;108762;1256;65651;-78
2023/04/28 01:46:27;;;;;;;;;;;;;;;2.06;63.11;101704.38;108832;1256;124305;-78
2023/04/28 01:48:55;;;;;;;;;;;;;;;2.06;63.24;101701.93;108835;1256;59305;-78
2023/04/28 01:51:21;;;;;;;;;;;;;;;2.05;63.12;101702.44;108741;1255;125091;-77
2023/04/28 01:53:48;;;;;;;;;;;;;;;2.05;63.19;101704.46;108900;1257;75171;-77
2023/04/28 01:56:16;;;;;;;;;;;;;;;2.03;63.25;101703.47;108918;1256;67120;-79
2023/04/28 01:58:43;;;;;;;;;;;;;;;2.03;63.37;101702.60;108840;1256;123987;-79
2023/04/28 02:01:10;;;;;;;;;;;;;;;2.02;63.38;101704.10;108897;1257;60078;-79
2023/04/28 02:03:40;;;;;;;;;;;;;;;2.02;63.43;101703.04;108886;1256;123913;-79
2023/04/28 02:06:07;;;;;;;;;;;;;;;2.01;63.37;101706.42;108953;1260;74733;-81
2023/04/28 02:08:34;;;;;;;;;;;;;;;2.00;63.61;101706.73;108958;1256;65853;-81
2023/04/28 02:11:02;;;;;;;;;;;;;;;2.00;63.67;101702.34;108718;1257;124379;-80
2023/04/28 02:13:29;;;;;;;;;;;;;;;1.99;63.68;101704.41;108991;1256;58959;-81
2023/04/28 02:15:59;;;;;;;;;;;;;;;1.99;63.83;101702.65;108442;1260;123930;-84
2023/04/28 02:18:27;;;;;;;;;;;;;;;1.99;64.03;101701.45;107273;1256;74126;-84
2023/04/28 02:21:10;;;;;;;;;;;;;;;1.99;64.05;101702.33;107177;1256;124400;-83
2023/04/28 02:23:38;;;;;;;;;;;;;;;1.99;63.98;101701.30;107686;1256;71532;-84
2023/04/28 02:26:05;;;;;;;;;;;;;;;1.99;64.20;101699.91;107773;1262;61098;-83
2023/04/28 02:28:33;;;;;;;;;;;;;;;1.99;64.09;101700.43;107270;1256;124277;-83
2023/04/28 02:31:07;;;;;;;;;;;;;;;1.98;63.93;101700.17;107407;1256;74397;-80
2023/04/28 02:33:34;;;;;;;;;;;;;;;1.97;63.99;101699.70;107559;1256;123835;-78
2023/04/28 02:36:03;;;;;;;;;;;;;;;1.95;64.17;101699.24;107695;1257;71021;-79
2023/04/28 02:38:30;;;;;;;;;;;;;;;1.93;64.11;101700.52;107898;1256;61038;-78
2023/04/28 02:40:58;;;;;;;;;;;;;;;1.92;64.33;101703.55;107850;1256;123843;-79
2023/04/28 02:43:26;;;;;;;;;;;;;;;1.92;64.48;101704.36;108670;1256;75732;-78
2023/04/28 02:45:53;;;;;;;;;;;;;;;1.90;64.46;101705.25;108517;1257;124498;-78
2023/04/28 02:48:20;;;;;;;;;;;;;;;1.89;64.47;101705.17;108773;1260;70810;-78
2023/04/28 02:50:47;;;;;;;;;;;;;;;1.88;64.62;101707.18;108736;1256;124298;-78
2023/04/28 02:53:14;;;;;;;;;;;;;;;1.87;64.61;101704.33;108789;1257;60997;-78
2023/04/28 02:55:41;;;;;;;;;;;;;;;1.85;64.58;101705.98;108720;1256;72940;-77
2023/04/28 02:58:08;;;;;;;;;;;;;;;1.85;64.68;101708.55;107503;1257;124066;-78
2023/04/28 03:00:35;;;;;;;;;;;;;;;1.86;64.71;101707.52;107542;1256;72741;-81
2023/04/28 03:03:02;;;;;;;;;;;;;;;1.85;64.98;101705.60;107481;1256;124039;-82
2023/04/28 03:05:31;;;;;;;;;;;;;;;1.86;64.86;101707.39;107646;1256;59834;-83
2023/04/28 03:07:59;;;;;;;;;;;;;;;1.87;64.95;101707.96;107761;1258;74724;-82
2023/04/28 03:10:29;;;;;;;;;;;;;;;1.87;65.13;101712.31;107751;1259;124411;-82
2023/04/28 03:12:56;;;;;;;;;;;;;;;1.87;65.14;101709.59;107606;1257;71119;-81
2023/04/28 03:15:23;;;;;;;;;;;;;;;1.89;65.07;101711.23;107315;1259;125748;-82
2023/04/28 03:17:50;;;;;;;;;;;;;;;1.90;65.21;101710.96;107292;1257;60988;-82
2023/04/28 03:20:17;;;;;;;;;;;;;;;1.92;65.15;101706.46;107273;1257;75084;-81
2023/04/28 03:22:50;;;;;;;;;;;;;;;1.93;65.05;101705.90;107249;1260;125236;-84
2023/04/28 03:25:19;;;;;;;;;;;;;;;1.97;65.30;101706.46;107628;1257;73266;-83
2023/04/28 03:27:47;;;;;;;;;;;;;;;2.00;65.27;101706.36;107662;1262;125174;-83
2023/04/28 03:30:14;;;;;;;;;;;;;;;2.04;65.20;101704.40;107719;1257;61161;-83
2023/04/28 03:32:41;;;;;;;;;;;;;;;2.09;65.26;101707.93;107165;1259;125208;-82
2023/04/28 03:35:08;;;;;;;;;;;;;;;2.16;65.31;101710.66;107476;1262;65890;-82
2023/04/28 03:37:35;;;;;;;;;;;;;;;2.23;65.44;101714.82;107402;1260;73001;-79
2023/04/28 03:40:03;;;;;;;;;;;;;;;2.35;65.47;101713.64;107428;1260;124801;-79
2023/04/28 03:42:30;;;;;;;;;;;;;;;2.89;66.40;101713.88;107442;1257;59614;-80
2023/04/28 03:44:57;;;;;;;;;;;;;;;3.87;66.64;101711.08;107369;1259;125183;-79
2023/04/28 03:47:24;;;;;;;;;;;;;;;4.91;66.12;101704.49;107915;1260;67717;-80
2023/04/28 03:49:51;;;;;;;;;;;;;;;5.85;65.20;101702.89;108056;1259;71939;-79
2023/04/28 03:52:18;;;;;;;;;;;;;;;6.74;64.33;101702.26;107613;1258;125320;-81
2023/04/28 03:54:50;;;;;;;;;;;;;;;7.66;63.46;101698.97;107447;1257;60328;-80
2023/04/28 03:57:17;;;;;;;;;;;;;;;8.68;62.54;101695.52;107313;1262;125172;-80
2023/04/28 03:59:44;;;;;;;;;;;;;;;9.74;61.41;101696.69;107225;1265;67077;-79
2023/04/28 04:02:11;;;;;;;;;;;;;;;10.77;60.21;101694.12;107412;1259;71460;-82
2023/04/28 04:04:38;;;;;;;;;;;;;;;11.81;58.90;101693.23;108739;1259;124319;-81
2023/04/28 04:07:05;;;;;;;;;;;;;;;12.87;57.60;101692.50;108324;1257;60160;-81
2023/04/28 04:09:33;;;;;;;;;;;;;;;13.87;56.17;101693.77;107466;1260;124851;-79
2023/04/28 04:12:00;;;;;;;;;;;;;;;14.81;54.80;101694.89;108640;1260;66017;-80
2023/04/28 04:14:26;;;;;;;;;;;;;;;15.68;53.64;101689.29;107956;1262;72702;-82
2023/04/28 04:16:54;;;;;;;;;;;;;;;16.65;52.34;101691.66;107179;1257;124418;-81
2023/04/28 04:19:22;;;;;;;;;;;;;;;17.56;51.02;101692.54;107203;1257;61216;-81
2023/04/28 04:21:50;;;;;;;;;;;;;;;18.45;49.70;101696.05;107379;1258;124344;-80
2023/04/28 04:24:17;;;;;;;;;;;;;;;19.27;48.26;101691.06;107625;1260;67092;-81
2023/04/28 04:26:44;;;;;;;;;;;;;;;19.94;47.17;101687.71;107624;1257;124978;-83
2023/04/28 04:29:13;;;;;;;;;;;;;;;20.74;46.14;101686.27;107324;1265;61235;-83
2023/04/28 04:31:40;;;;;;;;;;;;;;;21.48;44.83;101687.11;107392;1257;59914;-83
2023/04/28 04:34:07;;;;;;;;;;;;;;;22.19;43.73;101690.40;107253;1262;124521;-82
2023/04/28 04:36:33;;;;;;;;;;;;;;;22.75;42.54;101694.20;107443;1259;65647;-80
2023/04/28 04:39:00;;;;;;;;;;;;;;;23.34;41.60;101691.75;107917;1257;125053;-81
2023/04/28 04:41:27;;;;;;;;;;;;;;;23.88;40.67;101691.75;107941;1260;59541;-81
2023/04/28 04:43:54;;;;;;;;;;;;;;;24.42;39.68;101689.61;107825;1262;59838;-81
2023/04/28 04:46:21;;;;;;;;;;;;;;;24.91;38.72;101688.35;107387;1265;124380;-80
2023/04/28 04:48:48;;;;;;;;;;;;;;;25.35;37.99;101691.78;108598;1258;65986;-82
2023/04/28 04:51:17;;;;;;;;;;;;;;;25.76;37.11;101688.89;108747;1258;125446;-83
2023/04/28 04:53:44;;;;;;;;;;;;;;;26.15;36.49;101696.45;107816;1261;61248;-84
2023/04/28 04:56:11;;;;;;;;;;;;;;;26.57;35.84;101695.92;107676;1259;60110;-81
2023/04/28 04:58:38;;;;;;;;;;;;;;;26.92;34.80;101697.51;107960;1257;124447;-84
2023/04/28 05:01:05;;;;;;;;;;;;;;;27.23;34.36;101696.25;107861;1257;67143;-86
2023/04/28 05:03:38;;;;;;;;;;;;;;;27.56;33.56;101695.45;107353;1258;124408;-84
2023/04/28 05:06:05;;;;;;;;;;;;;;;27.92;33.05;101693.80;107423;1257;61136;-84
2023/04/28 05:08:47;;;;;;;;;;;;;;;28.18;32.46;101692.25;107794;1263;59305;-84
2023/04/28 05:11:19;;;;;;;;;;;;;;;28.48;32.06;101690.68;107973;1257;64793;-83
2023/04/28 05:13:47;;;;;;;;;;;;;;;28.82;31.68;101692.92;108085;1257;59640;-84
2023/04/28 05:16:14;;;;;;;;;;;;;;;29.02;31.04;101695.46;108069;1258;124249;-82
2023/04/28 05:18:41;;;;;;;;;;;;;;;29.18;30.74;101694.87;108041;1260;61084;-84
2023/04/28 05:21:10;;;;;;;;;;;;;;;29.34;30.32;101696.83;107944;1263;124494;-82
2023/04/28 05:23:37;;;;;;;;;;;;;;;29.10;29.78;101695.89;108175;1261;66454;-82
2023/04/28 05:26:05;;;;;;;;;;;;;;;28.05;29.37;101698.03;108173;1257;59490;-82
2023/04/28 05:28:32;;;;;;;;;;;;;;;26.47;29.03;101702.05;107867;1257;124998;-80
2023/04/28 05:30:59;;;;;;;;;;;;;;;24.55;29.24;101701.55;108050;1257;60476;-82
2023/04/28 05:33:26;;;;;;;;;;;;;;;22.90;29.85;101709.77;108027;1259;124763;-82
2023/04/28 05:35:53;;;;;;;;;;;;;;;21.48;30.59;101709.95;108185;1257;74800;-82
2023/04/28 05:38:20;;;;;;;;;;;;;;;20.26;31.28;101710.73;107930;1257;65616;-82
2023/04/28 05:40:47;;;;;;;;;;;;;;;19.19;32.06;101711.85;107818;1262;125624;-81
2023/04/28 05:43:14;;;;;;;;;;;;;;;18.27;32.76;101714.21;107884;1258;59589;-81
2023/04/28 05:45:43;;;;;;;;;;;;;;;17.53;33.53;101713.45;107619;1260;124361;-82
2023/04/28 05:48:13;;;;;;;;;;;;;;;16.82;34.14;101711.44;107670;1263;74806;-81
2023/04/28 05:50:40;;;;;;;;;;;;;;;16.22;34.81;101716.31;107335;1263;66951;-82
2023/04/28 05:53:07;;;;;;;;;;;;;;;15.73;35.43;101721.77;107658;1262;71154;-82
2023/04/28 05:55:37;;;;;;;;;;;;;;;15.27;35.87;101718.70;108160;1258;59331;-83
2023/04/28 05:58:05;;;;;;;;;;;;;;;14.85;36.30;101718.85;107790;1257;124542;-83
2023/04/28 06:00:33;;;;;;;;;;;;;;;14.48;36.72;101719.71;107379;1263;77887;-83
2023/04/28 06:03:00;;;;;;;;;;;;;;;14.13;36.90;101719.53;108602;1257;124893;-82
2023/04/28 06:05:27;;;;;;;;;;;;;;;13.77;37.16;101722.64;108700;1257;71389;-82
2023/04/28 06:07:54;;;;;;;;;;;;;;;13.46;37.60;101720.18;108850;1258;59065;-83
2023/04/28 06:10:22;;;;;;;;;;;;;;;13.18;37.90;101719.16;108803;1260;124453;-82
2023/04/28 06:12:49;;;;;;;;;;;;;;;12.94;38.35;101717.54;108707;1258;72714;-81
2023/04/28 06:15:16;;;;;;;;;;;;;;;12.71;38.56;101716.84;108651;1258;124802;-82
2023/04/28 06:17:43;;;;;;;;;;;;;;;12.50;38.69;101724.10;108779;1258;71406;-82
2023/04/28 06:20:12;;;;;;;;;;;;;;;12.32;38.97;101728.43;108869;1258;59426;-81
2023/04/28 06:22:40;;;;;;;;;;;;;;;12.13;39.16;101728.14;108773;1258;124260;-82
2023/04/28 06:25:07;;;;;;;;;;;;;;;11.94;39.23;101730.63;108839;1259;73411;-82
2023/04/28 06:27:34;;;;;;;;;;;;;;;11.72;39.52;101731.05;108779;1257;124604;-81
2023/04/28 06:30:01;;;;;;;;;;;;;;;11.56;39.67;101731.02;108754;1257;71399;-81
2023/04/28 06:32:28;;;;;;;;;;;;;;;11.43;39.79;101727.58;108902;1257;59548;-81
2023/04/28 06:34:55;;;;;;;;;;;;;;;11.33;39.93;101732.81;108785;1260;124686;-81
2023/04/28 06:37:22;;;;;;;;;;;;;;;11.18;40.19;101728.38;108825;1258;73480;-81
2023/04/28 06:39:49;;;;;;;;;;;;;;;11.10;40.26;101730.18;108824;1257;124230;-81
2023/04/28 06:42:17;;;;;;;;;;;;;;;11.05;40.37;101729.61;108784;1257;71894;-81
2023/04/28 06:44:45;;;;;;;;;;;;;;;10.98;40.58;101726.02;108817;1257;59192;-82
2023/04/28 06:47:12;;;;;;;;;;;;;;;10.95;40.80;101727.67;108578;1259;124635;-80
2023/04/28 06:49:39;;;;;;;;;;;;;;;10.88;40.77;101726.52;108758;1256;75319;-79
2023/04/28 06:52:06;;;;;;;;;;;;;;;10.85;41.04;101726.58;108773;1257;124793;-80
2023/04/28 06:54:33;;;;;;;;;;;;;;;10.86;41.14;101722.92;108799;1262;71413;-80
2023/04/28 06:57:01;;;;;;;;;;;;;;;10.88;40.84;101724.39;108865;1257;125189;-80
2023/04/28 06:59:28;;;;;;;;;;;;;;;10.84;40.63;101724.25;108959;1257;59000;-81
2023/04/28 07:01:55;;;;;;;;;;;;;;;10.84;40.54;101723.20;108857;1256;72972;-81
2023/04/28 07:04:22;;;;;;;;;;;;;;;10.87;40.71;101724.55;108686;1258;125200;-79
2023/04/28 07:06:49;;;;;;;;;;;;;;;10.93;40.70;101725.47;108776;1257;72771;-81
2023/04/28 07:09:16;;;;;;;;;;;;;;;10.98;40.53;101725.83;108715;1257;124649;-81
2023/04/28 07:11:44;;;;;;;;;;;;;;;11.04;40.35;101723.63;108738;1263;59724;-81
2023/04/28 07:14:11;;;;;;;;;;;;;;;11.13;40.26;101719.58;108873;1259;74905;-81
2023/04/28 07:16:38;;;;;;;;;;;;;;;11.24;40.25;101718.93;108755;1257;124857;-81
2023/04/28 07:19:05;;;;;;;;;;;;;;;11.38;40.15;101719.09;108829;1257;72706;-81
2023/04/28 07:21:33;;;;;;;;;;;;;;;11.51;40.18;101716.77;108762;1257;124395;-81
2023/04/28 07:24:00;;;;;;;;;;;;;;;11.65;39.85;101715.54;108866;1257;59820;-81
2023/04/28 07:26:27;;;;;;;;;;;;;;;11.77;39.62;101710.67;108856;1257;73715;-81
2023/04/28 07:28:55;;;;;;;;;;;;;;;11.83;39.52;101707.19;108769;1258;124697;-81
2023/04/28 07:31:21;;;;;;;;;;;;;;;11.78;39.23;101706.84;108792;1257;71410;-81
2023/04/28 07:33:48;;;;;;;;;;;;;;;11.75;39.39;101708.52;107714;1261;124359;-81
2023/04/28 07:36:15;;;;;;;;;;;;;;;11.76;39.35;101705.01;107578;1257;62117;-80
2023/04/28 07:38:42;;;;;;;;;;;;;;;11.73;38.93;101703.33;107543;1262;73402;-81
2023/04/28 07:41:09;;;;;;;;;;;;;;;11.63;38.85;101699.80;107507;1260;124816;-81
2023/04/28 07:43:36;;;;;;;;;;;;;;;11.62;39.06;101699.08;107579;1264;72026;-80
2023/04/28 07:46:03;;;;;;;;;;;;;;;11.70;38.98;101698.63;107536;1257;124358;-81
2023/04/28 07:48:31;;;;;;;;;;;;;;;11.81;38.85;101697.27;107470;1263;60963;-81
2023/04/28 07:50:58;;;;;;;;;;;;;;;11.90;38.84;101694.43;107537;1256;125068;-80
2023/04/28 07:53:25;;;;;;;;;;;;;;;11.94;38.85;101691.60;107811;1257;66689;-80
2023/04/28 07:55:52;;;;;;;;;;;;;;;11.94;38.71;101696.52;107704;1258;72932;-80
2023/04/28 07:58:19;;;;;;;;;;;;;;;11.88;38.34;101691.35;107619;1262;125022;-80
2023/04/28 08:00:47;;;;;;;;;;;;;;;11.91;38.56;101687.60;107845;1257;60137;-81
2023/04/28 08:03:14;;;;;;;;;;;;;;;12.04;38.73;101681.20;107415;1257;125040;-81
2023/04/28 08:05:41;;;;;;;;;;;;;;;12.22;38.51;101680.59;107450;1257;65819;-81
2023/04/28 08:08:08;;;;;;;;;;;;;;;12.42;38.44;101681.23;107382;1257;72638;-81
2023/04/28 08:10:35;;;;;;;;;;;;;;;12.52;38.16;101684.20;107209;1263;124447;-82
2023/04/28 08:13:02;;;;;;;;;;;;;;;12.66;37.83;101684.10;107632;1257;60710;-81
2023/04/28 08:15:29;;;;;;;;;;;;;;;12.84;37.74;101680.09;107483;1257;124529;-80
2023/04/28 08:17:56;;;;;;;;;;;;;;;13.08;37.51;101678.88;107787;1258;67055;-81
2023/04/28 08:20:23;;;;;;;;;;;;;;;13.35;37.32;101680.55;107880;1257;71451;-81
2023/04/28 08:22:50;;;;;;;;;;;;;;;13.65;37.08;101680.35;107585;1260;125116;-81
2023/04/28 08:25:17;;;;;;;;;;;;;;;13.93;36.70;101675.94;107938;1260;59951;-81
2023/04/28 08:27:44;;;;;;;;;;;;;;;14.12;36.52;101679.09;108734;1257;124522;-81
2023/04/28 08:30:11;;;;;;;;;;;;;;;14.22;36.42;101673.16;108824;1257;66364;-80
2023/04/28 08:32:38;;;;;;;;;;;;;;;14.34;36.37;101673.98;108805;1257;72901;-80
2023/04/28 08:35:05;;;;;;;;;;;;;;;14.44;36.37;101665.23;108840;1256;124309;-81
2023/04/28 08:37:33;;;;;;;;;;;;;;;14.56;36.45;101671.89;108905;1257;59188;-80
2023/04/28 08:40:08;;;;;;;;;;;;;;;14.66;36.20;101671.60;108772;1256;124690;-81
2023/04/28 08:42:35;;;;;;;;;;;;;;;14.75;36.01;101669.70;108841;1257;66088;-81
2023/04/28 08:45:03;;;;;;;;;;;;;;;14.72;35.91;101668.55;108823;1257;124991;-81
2023/04/28 08:47:33;;;;;;;;;;;;;;;14.70;35.73;101664.80;108808;1257;59362;-81
2023/04/28 08:50:04;;;;;;;;;;;;;;;14.67;35.57;101664.90;108933;1257;59751;-81
2023/04/28 08:52:32;;;;;;;;;;;;;;;14.62;35.39;101662.50;108817;1258;125158;-82
2023/04/28 08:55:00;;;;;;;;;;;;;;;14.53;35.36;101661.38;108875;1263;67121;-81
2023/04/28 08:57:27;;;;;;;;;;;;;;;14.37;35.21;101659.40;108805;1257;125247;-82
2023/04/28 08:59:54;;;;;;;;;;;;;;;14.23;35.33;101662.77;108828;1257;59357;-81
2023/04/28 09:02:21;;;;;;;;;;;;;;;14.18;35.34;101666.89;108856;1257;59269;-81
2023/04/28 09:04:48;;;;;;;;;;;;;;;14.13;35.11;101666.21;108834;1257;124690;-81
2023/04/28 09:07:15;;;;;;;;;;;;;;;14.06;35.25;101665.90;108869;1257;65826;-81
2023/04/28 09:09:44;;;;;;;;;;;;;;;14.08;35.45;101668.22;108608;1257;124502;-81
2023/04/28 09:12:11;;;;;;;;;;;;;;;14.14;35.71;101667.14;108506;1260;59337;-81
2023/04/28 09:14:38;;;;;;;;;;;;;;;14.24;35.80;101665.96;107506;1258;60197;-81
2023/04/28 09:17:08;;;;;;;;;;;;;;;14.31;35.66;101665.44;107410;1258;125041;-81
2023/04/28 09:19:36;;;;;;;;;;;;;;;14.40;35.85;101663.35;107451;1266;67124;-81
2023/04/28 09:22:06;;;;;;;;;;;;;;;14.52;35.86;101664.90;107405;1258;124825;-81
2023/04/28 09:24:34;;;;;;;;;;;;;;;14.71;35.82;101663.58;107530;1257;59706;-81
2023/04/28 09:27:03;;;;;;;;;;;;;;;14.88;35.75;101660.42;107410;1263;124615;-83
2023/04/28 09:29:30;;;;;;;;;;;;;;;14.98;35.40;101661.52;107581;1258;74768;-81
2023/04/28 09:32:13;;;;;;;;;;;;;;;15.02;35.14;101657.54;108367;1257;66245;-83
2023/04/28 09:34:46;;;;;;;;;;;;;;;15.13;34.98;101656.36;107240;1257;124788;-83
2023/04/28 09:37:14;;;;;;;;;;;;;;;15.20;34.77;101656.67;107473;1257;61377;-83
2023/04/28 09:39:49;;;;;;;;;;;;;;;15.19;34.67;101658.44;107219;1257;124388;-83
2023/04/28 09:42:40;;;;;;;;;;;;;;;15.12;34.55;101657.75;107184;1258;73444;-83
2023/04/28 09:45:08;;;;;;;;;;;;;;;15.05;34.65;101661.85;107292;1257;124476;-83
2023/04/28 09:47:37;;;;;;;;;;;;;;;14.91;34.59;101662.97;107543;1257;72701;-83
2023/04/28 09:50:05;;;;;;;;;;;;;;;14.74;34.66;101661.36;107296;1257;59825;-83
2023/04/28 09:52:33;;;;;;;;;;;;;;;14.56;34.67;101662.16;107255;1257;125131;-83
2023/04/28 09:55:07;;;;;;;;;;;;;;;14.39;34.92;101656.98;107178;1257;74743;-83
2023/04/28 09:57:35;;;;;;;;;;;;;;;14.26;35.08;101653.83;107266;1257;124901;-83
2023/04/28 10:00:05;;;;;;;;;;;;;;;14.14;35.19;101651.26;107310;1257;72763;-83
2023/04/28 10:02:33;;;;;;;;;;;;;;;14.09;35.49;101650.60;107397;1263;61310;-83
2023/04/28 10:05:00;;;;;;;;;;;;;;;14.05;35.55;101644.69;107588;1257;124621;-83
2023/04/28 10:07:29;;;;;;;;;;;;;;;14.08;35.56;101645.11;108163;1257;74707;-83
2023/04/28 10:09:57;;;;;;;;;;;;;;;14.16;35.80;101643.90;107778;1256;124312;-83
2023/04/28 10:12:30;;;;;;;;;;;;;;;14.29;35.89;101643.48;107470;1257;71679;-83
2023/04/28 10:14:57;;;;;;;;;;;;;;;14.49;35.78;101642.55;107481;1257;124750;-82
2023/04/28 10:17:28;;;;;;;;;;;;;;;14.71;35.55;101642.55;107662;1262;59924;-83
2023/04/28 10:19:57;;;;;;;;;;;;;;;14.88;35.27;101637.63;107596;1256;74696;-83
2023/04/28 10:22:24;;;;;;;;;;;;;;;15.10;35.18;101633.14;107255;1257;124417;-83
2023/04/28 10:25:10;;;;;;;;;;;;;;;15.32;35.13;101633.94;107278;1260;72699;-83
2023/04/28 10:27:37;;;;;;;;;;;;;;;15.55;35.03;101624.65;107095;1257;124825;-83
2023/04/28 10:30:18;;;;;;;;;;;;;;;15.77;34.94;101624.36;107267;1256;60138;-83
2023/04/28 10:32:48;;;;;;;;;;;;;;;15.98;34.67;101624.55;107433;1256;74573;-83
2023/04/28 10:35:23;;;;;;;;;;;;;;;16.16;34.47;101618.10;107470;1257;124547;-83
2023/04/28 10:38:08;;;;;;;;;;;;;;;16.16;34.20;101617.21;107673;1256;72414;-83
2023/04/28 10:40:36;;;;;;;;;;;;;;;16.21;34.23;101618.36;107500;1257;125340;-83
2023/04/28 10:43:06;;;;;;;;;;;;;;;16.25;34.05;101615.77;107352;1257;61131;-83
2023/04/28 10:45:53;;;;;;;;;;;;;;;16.36;33.88;101610.10;107189;1257;124496;-83
2023/04/28 10:48:39;;;;;;;;;;;;;;;16.45;33.78;101612.70;107379;1256;67323;-83
2023/04/28 10:51:08;;;;;;;;;;;;;;;16.60;33.59;101615.39;107132;1257;125296;-83
2023/04/28 10:53:45;;;;;;;;;;;;;;;16.72;33.63;101612.90;107162;1257;61341;-83
2023/04/28 10:56:25;;;;;;;;;;;;;;;16.93;33.43;101612.69;107184;1257;61251;-83
2023/04/28 10:58:54;;;;;;;;;;;;;;;17.09;33.23;101613.77;106977;1257;125072;-83
2023/04/28 11:01:21;;;;;;;;;;;;;;;17.19;33.00;101617.25;107438;1259;67059;-83
2023/04/28 11:06:33;;;;;;;;;;;;;;;17.39;32.82;101608.07;107526;1257;61328;-83
2023/04/28 11:09:02;;;;;;;;;;;;;;;17.47;32.63;101609.57;107515;1257;124938;-83
2023/04/28 11:11:32;;;;;;;;;;;;;;;17.57;32.40;101607.01;107182;1261;74681;-83
2023/04/28 11:14:19;;;;;;;;;;;;;;;17.60;32.35;101605.63;107039;1258;67562;-83
2023/04/28 11:16:49;;;;;;;;;;;;;;;17.62;32.33;101602.97;107061;1257;124983;-83
2023/04/28 11:19:44;;;;;;;;;;;;;;;17.69;32.34;101602.33;107268;1258;61317;-83
2023/04/28 11:22:14;;;;;;;;;;;;;;;17.65;31.93;101601.05;107253;1257;125071;-83
2023/04/28 11:24:41;;;;;;;;;;;;;;;17.65;31.84;101601.59;107580;1257;73105;-82
2023/04/28 11:27:22;;;;;;;;;;;;;;;17.74;31.86;101602.91;107057;1263;124548;-82
2023/04/28 11:29:52;;;;;;;;;;;;;;;17.75;31.62;101600.95;107233;1257;71473;-81
2023/04/28 11:32:30;;;;;;;;;;;;;;;17.68;31.48;101604.80;107121;1259;59579;-84
2023/04/28 11:34:59;;;;;;;;;;;;;;;17.66;31.61;101601.77;107172;1257;125045;-81
2023/04/28 11:37:26;;;;;;;;;;;;;;;17.76;31.39;101599.74;107408;1257;74797;-82
2023/04/28 11:39:53;;;;;;;;;;;;;;;17.87;31.23;101596.13;107300;1257;124672;-83
2023/04/28 11:42:24;;;;;;;;;;;;;;;17.96;31.20;101597.45;107265;1257;71402;-83
2023/04/28 11:44:51;;;;;;;;;;;;;;;18.12;31.14;101598.29;106937;1257;124556;-82
2023/04/28 11:47:27;;;;;;;;;;;;;;;18.21;30.83;101593.91;107507;1257;61315;-83
2023/04/28 11:49:54;;;;;;;;;;;;;;;18.13;30.45;101594.02;107684;1260;74726;-81
2023/04/28 11:52:21;;;;;;;;;;;;;;;17.98;30.35;101590.37;107463;1257;124431;-82
2023/04/28 11:54:59;;;;;;;;;;;;;;;17.81;30.42;101588.59;107480;1257;71091;-81
2023/04/28 11:57:34;;;;;;;;;;;;;;;17.73;30.61;101593.50;107464;1257;61186;-82
2023/04/28 12:00:11;;;;;;;;;;;;;;;17.75;30.85;101593.17;107704;1263;60554;-81
2023/04/28 12:02:38;;;;;;;;;;;;;;;17.86;30.82;101585.98;107463;1257;75946;-82
2023/04/28 12:05:06;;;;;;;;;;;;;;;17.99;30.89;101586.99;107103;1257;125339;-81
2023/04/28 12:07:41;;;;;;;;;;;;;;;18.16;30.51;101585.88;107396;1256;72682;-84
2023/04/28 12:10:10;;;;;;;;;;;;;;;18.15;30.33;101586.40;107329;1257;124878;-81
2023/04/28 12:12:37;;;;;;;;;;;;;;;18.12;30.41;101583.37;107683;1256;61186;-81
2023/04/28 12:15:05;;;;;;;;;;;;;;;18.02;30.07;101573.35;106770;1258;1357482;-81
2023/04/28 12:17:38;;;;;;;;;;;;;;;17.70;29.66;101575.02;107748;1260;66863;-84
2023/04/28 12:20:06;;;;;;;;;;;;;;;17.38;29.76;101578.60;107413;1256;72831;-80
2023/04/28 12:22:49;;;;;;;;;;;;;;;17.10;29.82;101576.19;107402;1257;124727;-81
2023/04/28 12:25:17;;;;;;;;;;;;;;;17.00;30.17;101579.08;107466;1256;61151;-81
2023/04/28 12:28:01;;;;;;;;;;;;;;;17.13;30.41;101574.27;107423;1256;125080;-82
2023/04/28 12:30:32;;;;;;;;;;;;;;;17.27;30.20;101570.15;107876;1257;67306;-81
2023/04/28 12:32:59;;;;;;;;;;;;;;;17.23;30.22;101562.14;107533;1256;124599;-80
2023/04/28 12:35:33;;;;;;;;;;;;;;;17.25;30.21;101562.86;107577;1261;60487;-81